La rose des vents
Donnes mto: Semaine 11/11/19 - 17/11/19 (S 46)
Date Horaire Temp. E. Hum. E. P.atmo. Pluie Vent 1mn Direction Ensoleilleme Ev.Tr. Solaire P. de rose Temp au vent Rafales
11/11/2019 00:00 9,6 C 84 % 1010,0 hPa 0,2 l/m 4,3 km/h (1 Bft) N-NE 0,00 h 0,025 mm 0 W/m 7,1 C 9,4 C 8,5 km/h (2 Bft)
11/11/2019 01:00 9,5 C 84 % 1009,7 hPa 0,0 l/m 0,7 km/h (0 Bft) N-NE 0,00 h 0,025 mm 0 W/m 6,9 C 9,5 C 2,0 km/h (1 Bft)
11/11/2019 02:00 9,2 C 82 % 1009,5 hPa 0,0 l/m 0,3 km/h (0 Bft) N-NE 0,00 h 0,000 mm 0 W/m 6,2 C 9,2 C 1,5 km/h (1 Bft)
11/11/2019 03:00 9,5 C 78 % 1009,2 hPa 0,2 l/m 0,0 km/h (0 Bft) N 0,00 h 0,025 mm 0 W/m 5,8 C 9,5 C 0,1 km/h (0 Bft)
11/11/2019 04:00 9,3 C 76 % 1008,9 hPa 0,0 l/m 0,0 km/h (0 Bft) N 0,00 h 0,025 mm 0 W/m 5,2 C 9,3 C 0,1 km/h (0 Bft)
11/11/2019 05:00 9,5 C 74 % 1008,6 hPa 0,0 l/m 0,3 km/h (0 Bft) N-NE 0,00 h 0,025 mm 0 W/m 5,1 C 9,5 C 1,0 km/h (0 Bft)
11/11/2019 06:00 10,2 C 70 % 1008,5 hPa 0,0 l/m 0,3 km/h (0 Bft) N-NE 0,00 h 0,025 mm 0 W/m 5,1 C 10,2 C 1,3 km/h (1 Bft)
11/11/2019 07:00 11,1 C 66 % 1008,5 hPa 0,0 l/m 0,0 km/h (0 Bft) N-NE 0,00 h 0,025 mm 6 W/m 5,0 C 11,1 C 0,3 km/h (0 Bft)
11/11/2019 08:00 11,2 C 68 % 1009,0 hPa 0,0 l/m 0,0 km/h (0 Bft) N 0,00 h 0,000 mm 29 W/m 5,6 C 11,2 C 0,3 km/h (0 Bft)
11/11/2019 09:00 11,3 C 76 % 1009,1 hPa 0,0 l/m 0,1 km/h (0 Bft) S-SE 0,00 h 0,025 mm 78 W/m 7,1 C 11,3 C 0,3 km/h (0 Bft)
11/11/2019 10:00 12,0 C 82 % 1008,6 hPa 0,0 l/m 0,0 km/h (0 Bft) N 0,07 h 0,051 mm 162 W/m 9,1 C 12,0 C 0,0 km/h (0 Bft)
11/11/2019 11:00 13,8 C 71 % 1008,0 hPa 0,0 l/m 0,1 km/h (0 Bft) N-NE 0,45 h 0,076 mm 252 W/m 8,7 C 13,8 C 1,3 km/h (1 Bft)
11/11/2019 12:00 14,5 C 65 % 1007,2 hPa 0,0 l/m 0,1 km/h (0 Bft) N-NE 0,00 h 0,127 mm 139 W/m 8,1 C 14,5 C 0,9 km/h (0 Bft)
11/11/2019 13:00 13,1 C 77 % 1007,1 hPa 2,4 l/m 1,0 km/h (0 Bft) NO 0,00 h 0,076 mm 52 W/m 9,1 C 13,1 C 2,7 km/h (1 Bft)
11/11/2019 14:00 11,1 C 90 % 1006,9 hPa 0,8 l/m 2,0 km/h (1 Bft) O-NO 0,00 h 0,025 mm 52 W/m 9,5 C 11,1 C 5,0 km/h (1 Bft)
11/11/2019 15:00 11,0 C 94 % 1006,8 hPa 0,2 l/m 0,0 km/h (0 Bft) O-NO 0,00 h 0,025 mm 29 W/m 10,0 C 11,0 C 0,3 km/h (0 Bft)
11/11/2019 16:00 10,8 C 94 % 1006,5 hPa 0,0 l/m 0,6 km/h (0 Bft) SE 0,00 h 0,025 mm 11 W/m 9,9 C 10,8 C 1,6 km/h (1 Bft)
11/11/2019 17:00 10,8 C 95 % 1006,7 hPa 0,2 l/m 0,2 km/h (0 Bft) SO 0,00 h 0,000 mm 0 W/m 10,1 C 10,8 C 0,5 km/h (0 Bft)
11/11/2019 18:00 10,7 C 96 % 1007,3 hPa 0,0 l/m 0,1 km/h (0 Bft) S-SO 0,00 h 0,000 mm 0 W/m 10,1 C 10,7 C 0,5 km/h (0 Bft)
11/11/2019 19:00 10,5 C 96 % 1006,9 hPa 0,0 l/m 0,3 km/h (0 Bft) S-SO 0,00 h 0,000 mm 0 W/m 9,9 C 10,5 C 1,0 km/h (0 Bft)
11/11/2019 20:00 10,3 C 96 % 1006,8 hPa 0,0 l/m 0,0 km/h (0 Bft) N 0,00 h 0,000 mm 0 W/m 9,7 C 10,3 C 0,0 km/h (0 Bft)
11/11/2019 21:00 10,0 C 96 % 1006,6 hPa 0,0 l/m 0,0 km/h (0 Bft) N 0,00 h 0,000 mm 0 W/m 9,4 C 10,0 C 0,1 km/h (0 Bft)
11/11/2019 22:00 9,6 C 96 % 1006,5 hPa 0,0 l/m 0,1 km/h (0 Bft) S-SO 0,00 h 0,000 mm 0 W/m 9,0 C 9,6 C 0,2 km/h (0 Bft)
11/11/2019 23:00 9,3 C 95 % 1006,2 hPa 0,0 l/m 0,6 km/h (0 Bft) S-SO 0,00 h 0,000 mm 0 W/m 8,5 C 9,3 C 2,0 km/h (1 Bft)
12/11/2019 00:00 8,9 C 94 % 1005,8 hPa 0,0 l/m 1,3 km/h (1 Bft) NO 0,00 h 0,000 mm 0 W/m 8,1 C 8,9 C 3,6 km/h (1 Bft)
12/11/2019 01:00 8,8 C 93 % 1005,1 hPa 0,0 l/m 0,3 km/h (0 Bft) NO 0,00 h 0,000 mm 0 W/m 7,7 C 8,8 C 1,8 km/h (1 Bft)
12/11/2019 02:00 8,5 C 92 % 1004,5 hPa 0,0 l/m 0,1 km/h (0 Bft) NO 0,00 h 0,000 mm 0 W/m 7,3 C 8,5 C 0,7 km/h (0 Bft)
12/11/2019 03:00 8,1 C 91 % 1003,4 hPa 0,0 l/m 0,2 km/h (0 Bft) NO 0,00 h 0,000 mm 0 W/m 6,8 C 8,1 C 1,1 km/h (1 Bft)
12/11/2019 04:00 8,0 C 92 % 1002,3 hPa 0,0 l/m 0,1 km/h (0 Bft) NO 0,00 h 0,000 mm 0 W/m 6,7 C 8,0 C 0,8 km/h (0 Bft)
12/11/2019 05:00 7,8 C 90 % 1002,3 hPa 0,2 l/m 1,3 km/h (1 Bft) NO 0,00 h 0,000 mm 0 W/m 6,3 C 7,8 C 3,6 km/h (1 Bft)
12/11/2019 06:00 7,6 C 91 % 1001,9 hPa 0,0 l/m 0,8 km/h (0 Bft) NO 0,00 h 0,000 mm 0 W/m 6,2 C 7,6 C 2,3 km/h (1 Bft)
12/11/2019 07:00 8,4 C 90 % 1001,3 hPa 0,0 l/m 0,2 km/h (0 Bft) N 0,00 h 0,000 mm 17 W/m 6,8 C 8,4 C 1,3 km/h (1 Bft)
12/11/2019 08:00 8,6 C 88 % 1001,7 hPa 0,0 l/m 0,1 km/h (0 Bft) SE 0,00 h 0,000 mm 70 W/m 6,8 C 8,6 C 0,7 km/h (0 Bft)
12/11/2019 09:00 10,3 C 87 % 1001,4 hPa 0,0 l/m 0,0 km/h (0 Bft) N 0,92 h 0,025 mm 252 W/m 8,2 C 10,3 C 0,0 km/h (0 Bft)
12/11/2019 10:00 13,3 C 80 % 1000,8 hPa 0,0 l/m 0,0 km/h (0 Bft) N 1,00 h 0,127 mm 379 W/m 10,0 C 13,3 C 0,0 km/h (0 Bft)
12/11/2019 11:00 15,1 C 72 % 999,8 hPa 0,0 l/m 1,1 km/h (1 Bft) S-SO 1,00 h 0,203 mm 446 W/m 10,0 C 15,1 C 3,3 km/h (1 Bft)
12/11/2019 12:00 16,6 C 65 % 997,9 hPa 0,0 l/m 1,8 km/h (1 Bft) SO 1,00 h 0,229 mm 459 W/m 9,9 C 16,6 C 5,0 km/h (1 Bft)
12/11/2019 13:00 17,6 C 60 % 996,8 hPa 0,0 l/m 0,4 km/h (0 Bft) S-SO 1,00 h 0,254 mm 416 W/m 9,6 C 17,6 C 1,8 km/h (1 Bft)
12/11/2019 14:00 18,4 C 62 % 996,1 hPa 0,0 l/m 0,0 km/h (0 Bft) N 1,00 h 0,229 mm 326 W/m 10,9 C 18,4 C 0,0 km/h (0 Bft)
12/11/2019 15:00 18,3 C 60 % 995,8 hPa 0,0 l/m 0,0 km/h (0 Bft) N 1,00 h 0,178 mm 202 W/m 10,4 C 18,3 C 0,0 km/h (0 Bft)
12/11/2019 16:00 18,0 C 59 % 995,5 hPa 0,0 l/m 0,0 km/h (0 Bft) N 0,72 h 0,127 mm 65 W/m 10,0 C 18,0 C 0,0 km/h (0 Bft)
12/11/2019 17:00 15,2 C 68 % 995,5 hPa 0,0 l/m 0,0 km/h (0 Bft) N 0,00 h 0,051 mm 8 W/m 9,3 C 15,2 C 0,0 km/h (0 Bft)
12/11/2019 18:00 12,5 C 74 % 995,6 hPa 0,0 l/m 0,0 km/h (0 Bft) N 0,00 h 0,000 mm 0 W/m 7,9 C 12,5 C 0,0 km/h (0 Bft)
12/11/2019 19:00 11,7 C 68 % 995,3 hPa 0,0 l/m 0,0 km/h (0 Bft) N 0,00 h 0,025 mm 0 W/m 6,1 C 11,7 C 0,0 km/h (0 Bft)
12/11/2019 20:00 10,9 C 60 % 994,9 hPa 0,0 l/m 0,0 km/h (0 Bft) N 0,00 h 0,025 mm 0 W/m 3,5 C 10,9 C 0,0 km/h (0 Bft)
12/11/2019 21:00 10,2 C 56 % 994,9 hPa 0,0 l/m 0,0 km/h (0 Bft) N 0,00 h 0,025 mm 0 W/m 1,7 C 10,2 C 0,0 km/h (0 Bft)
12/11/2019 22:00 9,4 C 54 % 995,0 hPa 0,0 l/m 0,0 km/h (0 Bft) N 0,00 h 0,025 mm 0 W/m 0,6 C 9,4 C 0,0 km/h (0 Bft)
12/11/2019 23:00 8,9 C 54 % 995,1 hPa 0,0 l/m 0,3 km/h (0 Bft) S-SE 0,00 h 0,025 mm 0 W/m 0,2 C 8,9 C 0,7 km/h (0 Bft)
13/11/2019 00:00 8,7 C 58 % 995,0 hPa 0,0 l/m 0,5 km/h (0 Bft) S-SE 0,00 h 0,025 mm 0 W/m 0,8 C 8,7 C 1,7 km/h (1 Bft)
13/11/2019 01:00 8,2 C 59 % 995,0 hPa 0,0 l/m 0,4 km/h (0 Bft) S-SE 0,00 h 0,025 mm 0 W/m 0,6 C 8,2 C 1,7 km/h (1 Bft)
13/11/2019 02:00 8,0 C 60 % 995,1 hPa 0,0 l/m 1,2 km/h (1 Bft) S-SE 0,00 h 0,025 mm 0 W/m 0,7 C 8,0 C 2,5 km/h (1 Bft)
13/11/2019 03:00 8,3 C 47 % 994,6 hPa 0,0 l/m 1,4 km/h (1 Bft) NO 0,00 h 0,025 mm 0 W/m -2,4 C 8,2 C 3,2 km/h (1 Bft)
13/11/2019 04:00 7,1 C 50 % 994,2 hPa 0,0 l/m 0,7 km/h (0 Bft) NO 0,00 h 0,051 mm 0 W/m -2,5 C 7,1 C 1,5 km/h (1 Bft)
13/11/2019 05:00 6,8 C 50 % 994,4 hPa 0,0 l/m 0,2 km/h (0 Bft) NO 0,00 h 0,025 mm 0 W/m -2,9 C 6,8 C 0,4 km/h (0 Bft)
13/11/2019 06:00 6,8 C 51 % 995,0 hPa 0,0 l/m 0,1 km/h (0 Bft) NO 0,00 h 0,025 mm 0 W/m -2,7 C 6,8 C 0,6 km/h (0 Bft)
13/11/2019 07:00 7,5 C 43 % 995,9 hPa 0,0 l/m 2,0 km/h (1 Bft) NO 0,07 h 0,000 mm 13 W/m -4,3 C 7,4 C 4,4 km/h (1 Bft)
13/11/2019 08:00 9,5 C 44 % 996,9 hPa 0,0 l/m 0,0 km/h (0 Bft) N 0,73 h 0,025 mm 121 W/m -2,0 C 9,5 C 0,1 km/h (0 Bft)
13/11/2019 09:00 11,9 C 46 % 997,9 hPa 0,0 l/m 0,0 km/h (0 Bft) N 1,00 h 0,076 mm 274 W/m 0,7 C 11,9 C 0,0 km/h (0 Bft)
13/11/2019 10:00 13,8 C 49 % 998,7 hPa 0,0 l/m 0,0 km/h (0 Bft) N 1,00 h 0,152 mm 380 W/m 3,2 C 13,8 C 0,0 km/h (0 Bft)
13/11/2019 11:00 16,1 C 47 % 999,3 hPa 0,0 l/m 0,9 km/h (0 Bft) S-SO 1,00 h 0,203 mm 471 W/m 4,8 C 16,1 C 2,4 km/h (1 Bft)
13/11/2019 12:00 15,7 C 46 % 999,6 hPa 0,0 l/m 4,6 km/h (1 Bft) S-SO 0,92 h 0,254 mm 406 W/m 4,1 C 15,7 C 10,0 km/h (2 Bft)
13/11/2019 13:00 14,6 C 52 % 1000,0 hPa 0,2 l/m 1,9 km/h (1 Bft) SO 0,50 h 0,254 mm 253 W/m 4,7 C 14,6 C 4,7 km/h (1 Bft)
13/11/2019 14:00 15,3 C 50 % 1000,5 hPa 0,0 l/m 1,6 km/h (1 Bft) SO 0,82 h 0,152 mm 275 W/m 4,8 C 15,3 C 4,1 km/h (1 Bft)
13/11/2019 15:00 14,5 C 53 % 1000,9 hPa 0,0 l/m 0,2 km/h (0 Bft) SO 0,03 h 0,152 mm 107 W/m 5,0 C 14,5 C 0,7 km/h (0 Bft)
13/11/2019 16:00 13,4 C 57 % 1001,6 hPa 0,0 l/m 0,0 km/h (0 Bft) N 0,17 h 0,051 mm 46 W/m 5,1 C 13,4 C 0,0 km/h (0 Bft)
13/11/2019 17:00 12,0 C 62 % 1002,4 hPa 0,0 l/m 0,0 km/h (0 Bft) N 0,00 h 0,025 mm 7 W/m 4,8 C 12,0 C 0,0 km/h (0 Bft)
13/11/2019 18:00 10,5 C 67 % 1003,2 hPa 0,0 l/m 0,0 km/h (0 Bft) N 0,00 h 0,000 mm 0 W/m 4,6 C 10,5 C 0,1 km/h (0 Bft)
13/11/2019 19:00 9,5 C 70 % 1003,6 hPa 0,0 l/m 0,8 km/h (0 Bft) S-SO 0,00 h 0,025 mm 0 W/m 4,3 C 9,5 C 2,9 km/h (1 Bft)
13/11/2019 20:00 9,0 C 72 % 1003,9 hPa 0,0 l/m 2,2 km/h (1 Bft) S-SO 0,00 h 0,025 mm 0 W/m 4,3 C 9,0 C 4,9 km/h (1 Bft)
13/11/2019 21:00 8,8 C 73 % 1004,4 hPa 0,0 l/m 1,3 km/h (1 Bft) SO 0,00 h 0,025 mm 0 W/m 4,1 C 8,8 C 3,8 km/h (1 Bft)
13/11/2019 22:00 8,5 C 72 % 1004,6 hPa 0,0 l/m 1,4 km/h (1 Bft) SO 0,00 h 0,025 mm 0 W/m 3,8 C 8,5 C 3,9 km/h (1 Bft)
13/11/2019 23:00 8,2 C 73 % 1004,3 hPa 0,0 l/m 1,5 km/h (1 Bft) SO 0,00 h 0,025 mm 0 W/m 3,6 C 8,2 C 3,5 km/h (1 Bft)
14/11/2019 00:00 7,9 C 72 % 1004,6 hPa 0,0 l/m 0,9 km/h (0 Bft) SO 0,00 h 0,025 mm 0 W/m 3,1 C 7,9 C 2,6 km/h (1 Bft)
14/11/2019 01:00 7,7 C 72 % 1004,7 hPa 0,0 l/m 1,0 km/h (0 Bft) SO 0,00 h 0,025 mm 0 W/m 3,0 C 7,7 C 3,3 km/h (1 Bft)
14/11/2019 02:00 7,8 C 74 % 1004,7 hPa 0,0 l/m 0,9 km/h (0 Bft) SO 0,00 h 0,025 mm 0 W/m 3,3 C 7,8 C 2,6 km/h (1 Bft)
14/11/2019 03:00 7,9 C 75 % 1004,8 hPa 0,0 l/m 2,3 km/h (1 Bft) SO 0,00 h 0,025 mm 0 W/m 3,7 C 7,9 C 4,8 km/h (1 Bft)
14/11/2019 04:00 7,9 C 75 % 1004,6 hPa 0,0 l/m 1,1 km/h (1 Bft) SO 0,00 h 0,025 mm 0 W/m 3,7 C 7,9 C 2,9 km/h (1 Bft)
14/11/2019 05:00 8,0 C 75 % 1004,7 hPa 0,0 l/m 0,2 km/h (0 Bft) SO 0,00 h 0,025 mm 0 W/m 3,9 C 8,0 C 1,3 km/h (1 Bft)
14/11/2019 06:00 8,2 C 75 % 1004,8 hPa 0,0 l/m 0,1 km/h (0 Bft) SO 0,00 h 0,025 mm 0 W/m 4,1 C 8,2 C 0,6 km/h (0 Bft)
14/11/2019 07:00 8,5 C 76 % 1005,2 hPa 0,0 l/m 0,0 km/h (0 Bft) SO 0,10 h 0,025 mm 12 W/m 4,4 C 8,5 C 0,4 km/h (0 Bft)
14/11/2019 08:00 9,2 C 76 % 1005,4 hPa 0,0 l/m 0,1 km/h (0 Bft) SO 0,00 h 0,000 mm 32 W/m 5,1 C 9,2 C 1,1 km/h (1 Bft)
14/11/2019 09:00 9,3 C 75 % 1005,4 hPa 0,0 l/m 0,7 km/h (0 Bft) SO 0,00 h 0,025 mm 44 W/m 5,1 C 9,3 C 3,1 km/h (1 Bft)
14/11/2019 10:00 10,1 C 78 % 1005,1 hPa 0,0 l/m 0,7 km/h (0 Bft) NE 0,00 h 0,025 mm 74 W/m 6,4 C 10,1 C 2,7 km/h (1 Bft)
14/11/2019 11:00 11,2 C 78 % 1004,9 hPa 0,0 l/m 1,1 km/h (1 Bft) N-NE 0,00 h 0,051 mm 80 W/m 7,5 C 11,2 C 4,5 km/h (1 Bft)
14/11/2019 12:00 11,9 C 77 % 1004,2 hPa 0,0 l/m 3,4 km/h (1 Bft) E 0,00 h 0,051 mm 99 W/m 7,9 C 11,9 C 9,0 km/h (2 Bft)
14/11/2019 13:00 12,3 C 76 % 1002,8 hPa 0,0 l/m 4,3 km/h (1 Bft) E 0,00 h 0,051 mm 80 W/m 8,2 C 12,3 C 12,2 km/h (2 Bft)
14/11/2019 14:00 12,1 C 75 % 1001,7 hPa 0,0 l/m 3,8 km/h (1 Bft) N-NE 0,00 h 0,051 mm 44 W/m 7,9 C 12,1 C 12,1 km/h (2 Bft)
14/11/2019 15:00 11,9 C 75 % 1000,6 hPa 0,0 l/m 4,5 km/h (1 Bft) N-NE 0,00 h 0,025 mm 12 W/m 7,5 C 11,9 C 12,9 km/h (3 Bft)
14/11/2019 16:00 9,8 C 86 % 999,6 hPa 3,0 l/m 5,2 km/h (1 Bft) N-NE 0,00 h 0,025 mm 0 W/m 7,5 C 9,4 C 13,7 km/h (3 Bft)
14/11/2019 17:00 9,2 C 93 % 999,7 hPa 7,8 l/m 4,2 km/h (1 Bft) N-NE 0,00 h 0,000 mm 0 W/m 8,1 C 8,9 C 11,4 km/h (2 Bft)
14/11/2019 18:00 9,2 C 95 % 999,9 hPa 12,0 l/m 1,8 km/h (1 Bft) N-NE 0,00 h 0,000 mm 0 W/m 8,5 C 9,1 C 4,9 km/h (1 Bft)
14/11/2019 19:00 9,1 C 96 % 999,6 hPa 12,2 l/m 4,0 km/h (1 Bft) N-NE 0,00 h 0,000 mm 0 W/m 8,5 C 8,7 C 9,9 km/h (2 Bft)
14/11/2019 20:00 8,6 C 97 % 997,3 hPa 7,8 l/m 6,0 km/h (2 Bft) N 0,00 h 0,000 mm 0 W/m 8,1 C 7,8 C 14,7 km/h (3 Bft)
14/11/2019 21:00 8,3 C 97 % 996,3 hPa 1,2 l/m 6,5 km/h (2 Bft) N-NE 0,00 h 0,000 mm 0 W/m 7,9 C 7,4 C 15,5 km/h (3 Bft)
14/11/2019 22:00 7,9 C 97 % 995,7 hPa 3,0 l/m 5,4 km/h (1 Bft) NE 0,00 h 0,000 mm 0 W/m 7,5 C 7,3 C 12,6 km/h (3 Bft)
14/11/2019 23:00 8,0 C 97 % 995,4 hPa 6,2 l/m 2,7 km/h (1 Bft) N-NE 0,00 h 0,000 mm 0 W/m 7,5 C 7,9 C 7,7 km/h (2 Bft)
15/11/2019 00:00 7,9 C 98 % 994,8 hPa 0,6 l/m 1,6 km/h (1 Bft) N 0,00 h 0,000 mm 0 W/m 7,6 C 7,9 C 4,2 km/h (1 Bft)
15/11/2019 01:00 8,2 C 98 % 995,0 hPa 3,6 l/m 5,1 km/h (1 Bft) S-SO 0,00 h 0,000 mm 0 W/m 7,9 C 7,5 C 9,5 km/h (2 Bft)
15/11/2019 02:00 8,2 C 98 % 996,2 hPa 0,0 l/m 4,4 km/h (1 Bft) SO 0,00 h 0,000 mm 0 W/m 7,8 C 7,7 C 8,6 km/h (2 Bft)
15/11/2019 03:00 7,5 C 97 % 997,6 hPa 0,0 l/m 4,4 km/h (1 Bft) SO 0,00 h 0,000 mm 0 W/m 7,1 C 7,0 C 8,4 km/h (2 Bft)
15/11/2019 04:00 7,0 C 96 % 998,6 hPa 0,0 l/m 1,0 km/h (0 Bft) O-SO 0,00 h 0,000 mm 0 W/m 6,4 C 7,0 C 3,0 km/h (1 Bft)
15/11/2019 05:00 6,2 C 96 % 999,2 hPa 0,0 l/m 1,0 km/h (0 Bft) O-SO 0,00 h 0,000 mm 0 W/m 5,6 C 6,2 C 2,0 km/h (1 Bft)
15/11/2019 06:00 5,6 C 96 % 999,5 hPa 0,2 l/m 0,0 km/h (0 Bft) N 0,00 h 0,000 mm 0 W/m 5,0 C 5,6 C 0,1 km/h (0 Bft)
15/11/2019 07:00 5,0 C 97 % 999,9 hPa 0,0 l/m 0,6 km/h (0 Bft) NE 0,00 h 0,000 mm 15 W/m 4,5 C 5,0 C 1,1 km/h (1 Bft)
15/11/2019 08:00 5,1 C 97 % 1000,6 hPa 0,0 l/m 2,5 km/h (1 Bft) NO 0,12 h 0,000 mm 70 W/m 4,7 C 5,1 C 5,0 km/h (1 Bft)
15/11/2019 09:00 5,9 C 97 % 1000,4 hPa 0,0 l/m 0,3 km/h (0 Bft) NO 0,05 h 0,025 mm 111 W/m 5,4 C 5,9 C 1,1 km/h (1 Bft)
15/11/2019 10:00 6,8 C 97 % 1000,8 hPa 0,0 l/m 0,0 km/h (0 Bft) N 0,08 h 0,051 mm 193 W/m 6,4 C 6,8 C 0,0 km/h (0 Bft)
15/11/2019 11:00 8,5 C 96 % 1000,7 hPa 0,0 l/m 0,0 km/h (0 Bft) NO 0,50 h 0,076 mm 271 W/m 7,9 C 8,5 C 0,2 km/h (0 Bft)
15/11/2019 12:00 10,5 C 91 % 1000,2 hPa 0,0 l/m 0,0 km/h (0 Bft) N 0,50 h 0,127 mm 265 W/m 9,0 C 10,5 C 0,0 km/h (0 Bft)
15/11/2019 13:00 11,2 C 84 % 1000,0 hPa 0,0 l/m 0,0 km/h (0 Bft) N 0,53 h 0,127 mm 278 W/m 8,6 C 11,2 C 0,0 km/h (0 Bft)
15/11/2019 14:00 11,6 C 81 % 1000,1 hPa 0,0 l/m 0,0 km/h (0 Bft) N 0,18 h 0,127 mm 187 W/m 8,4 C 11,6 C 0,0 km/h (0 Bft)
15/11/2019 15:00 11,5 C 81 % 1000,1 hPa 0,0 l/m 0,0 km/h (0 Bft) N 0,18 h 0,102 mm 106 W/m 8,3 C 11,5 C 0,0 km/h (0 Bft)
15/11/2019 16:00 10,1 C 84 % 1000,3 hPa 0,0 l/m 0,0 km/h (0 Bft) N 0,00 h 0,051 mm 23 W/m 7,6 C 10,1 C 0,0 km/h (0 Bft)
15/11/2019 17:00 8,9 C 87 % 1000,9 hPa 0,0 l/m 0,0 km/h (0 Bft) N 0,00 h 0,025 mm 0 W/m 6,9 C 8,9 C 0,0 km/h (0 Bft)
15/11/2019 18:00 8,3 C 89 % 1001,1 hPa 0,0 l/m 0,0 km/h (0 Bft) NO 0,00 h 0,000 mm 0 W/m 6,6 C 8,3 C 0,3 km/h (0 Bft)
15/11/2019 19:00 8,1 C 90 % 1001,5 hPa 1,6 l/m 1,0 km/h (0 Bft) N-NE 0,00 h 0,000 mm 0 W/m 6,5 C 8,1 C 3,7 km/h (1 Bft)
15/11/2019 20:00 7,3 C 93 % 1002,2 hPa 4,2 l/m 0,7 km/h (0 Bft) N-NE 0,00 h 0,000 mm 0 W/m 6,2 C 7,3 C 2,9 km/h (1 Bft)
15/11/2019 21:00 6,2 C 95 % 1003,1 hPa 3,0 l/m 1,2 km/h (1 Bft) N-NO 0,00 h 0,000 mm 0 W/m 5,4 C 6,2 C 3,7 km/h (1 Bft)
15/11/2019 22:00 5,7 C 96 % 1003,1 hPa 0,0 l/m 0,9 km/h (0 Bft) N 0,00 h 0,000 mm 0 W/m 5,1 C 5,7 C 3,2 km/h (1 Bft)
15/11/2019 23:00 5,8 C 96 % 1003,3 hPa 0,2 l/m 0,5 km/h (0 Bft) N-NO 0,00 h 0,000 mm 0 W/m 5,3 C 5,8 C 1,5 km/h (1 Bft)
16/11/2019 00:00 6,0 C 97 % 1004,3 hPa 1,8 l/m 0,6 km/h (0 Bft) N-NO 0,00 h 0,000 mm 0 W/m 5,5 C 6,0 C 1,7 km/h (1 Bft)
16/11/2019 01:00 6,3 C 97 % 1004,9 hPa 0,0 l/m 0,2 km/h (0 Bft) N-NO 0,00 h 0,000 mm 0 W/m 5,8 C 6,3 C 0,6 km/h (0 Bft)
16/11/2019 02:00 6,1 C 97 % 1005,5 hPa 0,0 l/m 0,0 km/h (0 Bft) N 0,00 h 0,000 mm 0 W/m 5,7 C 6,1 C 0,0 km/h (0 Bft)
16/11/2019 03:00 5,8 C 97 % 1006,1 hPa 0,0 l/m 0,0 km/h (0 Bft) N-NO 0,00 h 0,000 mm 0 W/m 5,3 C 5,8 C 0,2 km/h (0 Bft)
16/11/2019 04:00 5,7 C 97 % 1006,9 hPa 0,0 l/m 0,0 km/h (0 Bft) N 0,00 h 0,000 mm 0 W/m 5,3 C 5,7 C 0,1 km/h (0 Bft)
16/11/2019 05:00 5,9 C 97 % 1007,3 hPa 0,0 l/m 0,0 km/h (0 Bft) N-NO 0,00 h 0,000 mm 0 W/m 5,5 C 5,9 C 0,1 km/h (0 Bft)
16/11/2019 06:00 6,1 C 98 % 1008,2 hPa 0,0 l/m 0,4 km/h (0 Bft) N-NO 0,00 h 0,000 mm 0 W/m 5,8 C 6,1 C 1,5 km/h (1 Bft)
16/11/2019 07:00 5,8 C 97 % 1009,3 hPa 0,2 l/m 1,1 km/h (1 Bft) N-NO 0,32 h 0,000 mm 26 W/m 5,3 C 5,8 C 3,1 km/h (1 Bft)
16/11/2019 08:00 6,6 C 97 % 1010,1 hPa 0,0 l/m 0,2 km/h (0 Bft) N-NO 1,00 h 0,000 mm 137 W/m 6,1 C 6,6 C 1,5 km/h (1 Bft)
16/11/2019 09:00 9,0 C 94 % 1010,7 hPa 0,0 l/m 0,0 km/h (0 Bft) N 1,00 h 0,051 mm 269 W/m 8,0 C 9,0 C 0,0 km/h (0 Bft)
16/11/2019 10:00 10,8 C 84 % 1011,2 hPa 0,0 l/m 0,0 km/h (0 Bft) N 1,00 h 0,127 mm 379 W/m 8,3 C 10,8 C 0,0 km/h (0 Bft)
16/11/2019 11:00 13,2 C 74 % 1010,8 hPa 0,0 l/m 0,0 km/h (0 Bft) N 1,00 h 0,178 mm 433 W/m 8,6 C 13,2 C 0,4 km/h (0 Bft)
16/11/2019 12:00 14,3 C 63 % 1010,5 hPa 0,0 l/m 0,0 km/h (0 Bft) NE 0,97 h 0,229 mm 412 W/m 7,3 C 14,3 C 0,3 km/h (0 Bft)
16/11/2019 13:00 14,1 C 63 % 1010,2 hPa 0,0 l/m 0,0 km/h (0 Bft) N 0,88 h 0,229 mm 293 W/m 7,1 C 14,1 C 0,2 km/h (0 Bft)
16/11/2019 14:00 13,8 C 69 % 1009,9 hPa 0,0 l/m 0,0 km/h (0 Bft) NE 0,73 h 0,152 mm 250 W/m 8,1 C 13,8 C 0,5 km/h (0 Bft)
16/11/2019 15:00 13,8 C 68 % 1009,8 hPa 0,0 l/m 0,0 km/h (0 Bft) N 0,30 h 0,127 mm 114 W/m 7,9 C 13,8 C 0,0 km/h (0 Bft)
16/11/2019 16:00 11,8 C 76 % 1009,6 hPa 0,0 l/m 0,0 km/h (0 Bft) N 0,05 h 0,051 mm 30 W/m 7,6 C 11,8 C 0,0 km/h (0 Bft)
16/11/2019 17:00 9,8 C 80 % 1009,4 hPa 0,0 l/m 0,0 km/h (0 Bft) N 0,00 h 0,025 mm 5 W/m 6,6 C 9,8 C 0,0 km/h (0 Bft)
16/11/2019 18:00 9,1 C 82 % 1009,1 hPa 0,0 l/m 0,0 km/h (0 Bft) N 0,00 h 0,000 mm 0 W/m 6,2 C 9,1 C 0,0 km/h (0 Bft)
16/11/2019 19:00 8,9 C 78 % 1008,2 hPa 0,0 l/m 0,0 km/h (0 Bft) NE 0,00 h 0,000 mm 0 W/m 5,3 C 8,9 C 0,3 km/h (0 Bft)
16/11/2019 20:00 8,5 C 78 % 1008,0 hPa 0,0 l/m 0,0 km/h (0 Bft) N 0,00 h 0,025 mm 0 W/m 4,9 C 8,5 C 0,1 km/h (0 Bft)
16/11/2019 21:00 8,0 C 80 % 1007,8 hPa 0,0 l/m 0,0 km/h (0 Bft) N 0,00 h 0,025 mm 0 W/m 4,7 C 8,0 C 0,4 km/h (0 Bft)
16/11/2019 22:00 7,8 C 77 % 1006,9 hPa 0,0 l/m 0,3 km/h (0 Bft) NE 0,00 h 0,025 mm 0 W/m 4,1 C 7,8 C 1,3 km/h (1 Bft)
16/11/2019 23:00 8,5 C 71 % 1005,7 hPa 0,0 l/m 1,6 km/h (1 Bft) N-NO 0,00 h 0,025 mm 0 W/m 3,5 C 8,5 C 4,0 km/h (1 Bft)
17/11/2019 00:00 8,8 C 65 % 1004,3 hPa 0,0 l/m 0,5 km/h (0 Bft) N-NO 0,00 h 0,025 mm 0 W/m 2,6 C 8,8 C 1,0 km/h (0 Bft)
17/11/2019 01:00 8,5 C 68 % 1003,7 hPa 0,0 l/m 0,9 km/h (0 Bft) N-NO 0,00 h 0,025 mm 0 W/m 3,0 C 8,5 C 1,7 km/h (1 Bft)
17/11/2019 02:00 7,9 C 68 % 1003,1 hPa 0,0 l/m 1,8 km/h (1 Bft) N-NO 0,00 h 0,025 mm 0 W/m 2,2 C 7,9 C 3,0 km/h (1 Bft)
17/11/2019 03:00 8,1 C 66 % 1002,7 hPa 0,0 l/m 0,2 km/h (0 Bft) N-NO 0,00 h 0,025 mm 0 W/m 2,0 C 8,1 C 0,9 km/h (0 Bft)
17/11/2019 04:00 7,9 C 66 % 1001,7 hPa 0,0 l/m 0,2 km/h (0 Bft) N-NO 0,00 h 0,025 mm 0 W/m 1,9 C 7,9 C 0,5 km/h (0 Bft)
17/11/2019 05:00 7,2 C 67 % 1001,2 hPa 0,0 l/m 0,4 km/h (0 Bft) N-NO 0,00 h 0,025 mm 0 W/m 1,5 C 7,2 C 0,7 km/h (0 Bft)
17/11/2019 06:00 7,0 C 68 % 1000,9 hPa 0,0 l/m 0,1 km/h (0 Bft) N-NO 0,00 h 0,025 mm 0 W/m 1,5 C 7,0 C 0,7 km/h (0 Bft)
17/11/2019 07:00 7,1 C 66 % 1000,4 hPa 0,0 l/m 1,2 km/h (1 Bft) N-NO 0,03 h 0,025 mm 15 W/m 1,3 C 7,1 C 2,3 km/h (1 Bft)
17/11/2019 08:00 7,6 C 68 % 1000,5 hPa 0,0 l/m 0,5 km/h (0 Bft) N-NO 0,78 h 0,000 mm 110 W/m 2,1 C 7,6 C 1,6 km/h (1 Bft)
17/11/2019 09:00 9,3 C 65 % 1001,2 hPa 0,0 l/m 0,3 km/h (0 Bft) NO 1,00 h 0,051 mm 230 W/m 3,1 C 9,3 C 1,5 km/h (1 Bft)
17/11/2019 10:00 12,5 C 61 % 1000,8 hPa 0,0 l/m 0,6 km/h (0 Bft) O-NO 1,00 h 0,102 mm 369 W/m 5,0 C 12,5 C 1,4 km/h (1 Bft)
17/11/2019 11:00 13,2 C 56 % 1000,9 hPa 0,0 l/m 2,8 km/h (1 Bft) SO 1,00 h 0,178 mm 428 W/m 4,5 C 13,2 C 5,8 km/h (2 Bft)
17/11/2019 12:00 14,2 C 54 % 1000,6 hPa 0,0 l/m 2,2 km/h (1 Bft) SO 1,00 h 0,229 mm 440 W/m 5,0 C 14,2 C 4,4 km/h (1 Bft)
17/11/2019 13:00 14,4 C 54 % 1000,5 hPa 0,0 l/m 3,8 km/h (1 Bft) SO 1,00 h 0,254 mm 397 W/m 5,1 C 14,4 C 8,1 km/h (2 Bft)
17/11/2019 14:00 13,7 C 59 % 1000,7 hPa 0,0 l/m 5,0 km/h (1 Bft) SO 1,00 h 0,229 mm 306 W/m 5,9 C 13,7 C 10,7 km/h (2 Bft)
17/11/2019 15:00 12,4 C 62 % 1001,0 hPa 0,0 l/m 5,7 km/h (1 Bft) SO 1,00 h 0,178 mm 181 W/m 5,4 C 12,4 C 12,6 km/h (3 Bft)
17/11/2019 16:00 10,6 C 65 % 1001,4 hPa 0,0 l/m 5,5 km/h (1 Bft) SO 0,78 h 0,127 mm 53 W/m 4,3 C 10,3 C 11,2 km/h (2 Bft)
17/11/2019 17:00 7,8 C 74 % 1001,9 hPa 0,0 l/m 4,1 km/h (1 Bft) O-NO 0,00 h 0,051 mm 6 W/m 3,4 C 7,5 C 9,1 km/h (2 Bft)
17/11/2019 18:00 6,6 C 78 % 1002,7 hPa 0,0 l/m 1,2 km/h (1 Bft) O-NO 0,00 h 0,025 mm 0 W/m 3,0 C 6,6 C 3,0 km/h (1 Bft)
17/11/2019 19:00 5,8 C 82 % 1003,6 hPa 0,0 l/m 1,7 km/h (1 Bft) O-NO 0,00 h 0,025 mm 0 W/m 2,9 C 5,8 C 3,5 km/h (1 Bft)
17/11/2019 20:00 5,6 C 85 % 1003,9 hPa 0,0 l/m 2,0 km/h (1 Bft) O-NO 0,00 h 0,025 mm 0 W/m 3,3 C 5,4 C 3,4 km/h (1 Bft)
17/11/2019 21:00 5,3 C 84 % 1004,8 hPa 0,0 l/m 6,5 km/h (2 Bft) O-SO 0,00 h 0,000 mm 0 W/m 2,8 C 4,1 C 11,5 km/h (2 Bft)
17/11/2019 22:00 4,9 C 83 % 1005,1 hPa 0,0 l/m 1,6 km/h (1 Bft) O-SO 0,00 h 0,025 mm 0 W/m 2,3 C 4,8 C 3,2 km/h (1 Bft)
17/11/2019 23:00 4,8 C 82 % 1005,8 hPa 0,0 l/m 0,5 km/h (0 Bft) O-SO 0,00 h 0,000 mm 0 W/m 2,0 C 4,8 C 1,5 km/h (1 Bft)
Min-Date _ 17/11/19 13/11/19 13/11/19 - 11/11/19 - - - - 13/11/19 17/11/19 11/11/19
_ Min-Heure 23:00 07:39 04:30 - 00:46 - - - - 07:26 21:32 01:17
Minimum _ 4,6 C 39 % 994,0 hPa - 0,0 km/h (0 Bft) - - - - -5,2 C 2,6 C 0,0 km/h (0 Bft)
Max-Date _ 12/11/19 14/11/19 16/11/19 14/11/19 15/11/19 - 11/11/19 12/11/19 15/11/19 12/11/19 12/11/19 14/11/19
_ Max-Heure 14:10 23:22 10:30 19:25 01:25 - 10:56 13:00 13:22 14:34 14:10 16:27
Maximum _ 18,5 C 98 % 1011,3 hPa 12,2 l/m 17,7 km/h
S-SO (3 Bft)
- 0,02 h 0,254 mm 591 W/m 11,5 C 18,5 C 33,8 km/h
N-NE (5 Bft)
Moyenne _ 9,7 C 77 % 1002,7 hPa #73,0 l/m 1,1 km/h (0 Bft) SO #32:29 h #8,006 mm 174 W/m 5,6 C 9,6 C 2,7 km/h (1 Bft)
Roquefort les pins